createdAt,value
2018-11-04T00:00:17.220Z,12.00
2018-11-04T00:02:53.753Z,11.83
2018-11-04T00:05:29.799Z,11.13
2018-11-04T00:08:05.988Z,13.03
2018-11-04T00:10:42.222Z,12.13
2018-11-04T00:13:18.439Z,11.60
2018-11-04T00:15:54.592Z,12.60
2018-11-04T00:18:30.807Z,12.33
2018-11-04T00:21:07.327Z,12.70
2018-11-04T00:23:43.419Z,12.63
2018-11-04T00:26:19.410Z,11.90
2018-11-04T00:28:55.550Z,13.93
2018-11-04T00:31:31.708Z,11.00
2018-11-04T00:34:07.889Z,12.23
2018-11-04T00:36:44.091Z,13.50
2018-11-04T00:39:20.184Z,12.13
2018-11-04T00:41:56.251Z,12.17
2018-11-04T00:44:32.256Z,12.80
2018-11-04T00:47:08.463Z,12.30
2018-11-04T00:49:44.638Z,10.80
2018-11-04T00:52:20.844Z,11.80
2018-11-04T00:54:57.050Z,11.23
2018-11-04T00:57:33.144Z,11.10
2018-11-04T01:00:15.270Z,12.40
2018-11-04T01:02:51.454Z,11.90
2018-11-04T01:05:27.640Z,11.30
2018-11-04T01:08:03.857Z,11.97
2018-11-04T01:10:39.907Z,12.43
2018-11-04T01:13:16.084Z,12.27
2018-11-04T01:15:52.279Z,12.50
2018-11-04T01:18:28.426Z,12.90
2018-11-04T01:21:04.637Z,12.00
2018-11-04T01:23:40.773Z,12.70
2018-11-04T01:26:16.925Z,11.70
2018-11-04T01:28:52.975Z,13.73
2018-11-04T01:31:29.028Z,13.70
2018-11-04T01:34:05.074Z,11.30
2018-11-04T01:36:41.113Z,10.77
2018-11-04T01:39:17.330Z,11.67
2018-11-04T01:41:53.442Z,11.30
2018-11-04T01:44:29.633Z,11.33
2018-11-04T01:47:06.076Z,11.03
2018-11-04T01:49:42.164Z,12.57
2018-11-04T01:52:18.272Z,12.47
2018-11-04T01:54:54.395Z,12.30
2018-11-04T01:57:30.586Z,10.80
2018-11-04T02:00:11.668Z,13.07
2018-11-04T02:02:47.743Z,12.30
2018-11-04T02:05:23.943Z,10.90
2018-11-04T02:08:00.151Z,11.73
2018-11-04T02:10:36.523Z,12.80
2018-11-04T02:13:12.536Z,12.83
2018-11-04T02:15:48.545Z,12.60
2018-11-04T02:18:24.692Z,11.50
2018-11-04T02:21:00.913Z,12.17
2018-11-04T02:23:36.891Z,11.03
2018-11-04T02:26:13.066Z,12.90
2018-11-04T02:28:49.294Z,12.20
2018-11-04T02:31:25.438Z,13.03
2018-11-04T02:34:01.679Z,11.97
2018-11-04T02:36:37.750Z,13.33
2018-11-04T02:39:13.934Z,11.90
2018-11-04T02:41:50.106Z,13.93
2018-11-04T02:44:26.254Z,13.20
2018-11-04T02:47:02.413Z,11.90
2018-11-04T02:49:38.465Z,12.07
2018-11-04T02:52:14.647Z,13.90
2018-11-04T02:54:50.654Z,12.33
2018-11-04T02:57:27.082Z,12.93
2018-11-04T03:00:03.533Z,13.13
2018-11-04T03:02:39.557Z,12.60
2018-11-04T03:05:15.754Z,11.97
2018-11-04T03:07:51.966Z,12.33
2018-11-04T03:10:28.008Z,12.30
2018-11-04T03:13:04.083Z,13.13
2018-11-04T03:15:40.271Z,13.50
2018-11-04T03:18:16.476Z,12.77
2018-11-04T03:20:52.658Z,13.27
2018-11-04T03:23:28.857Z,12.13
2018-11-04T03:26:05.302Z,12.77
2018-11-04T03:28:41.216Z,13.30
2018-11-04T03:31:17.345Z,11.93
2018-11-04T03:33:53.506Z,11.70
2018-11-04T03:36:29.671Z,13.73
2018-11-04T03:39:08.503Z,12.33
2018-11-04T03:41:44.458Z,13.43
2018-11-04T03:44:20.556Z,12.20
2018-11-04T03:46:56.759Z,12.97
2018-11-04T03:49:32.941Z,12.43
2018-11-04T03:52:08.926Z,12.63
2018-11-04T03:54:45.143Z,14.10
2018-11-04T03:57:21.333Z,14.00
2018-11-04T03:59:57.330Z,13.40
2018-11-04T04:02:33.329Z,14.30
2018-11-04T04:05:10.367Z,13.27
2018-11-04T04:07:46.416Z,11.80
2018-11-04T04:10:22.579Z,12.60
2018-11-04T04:12:58.616Z,13.30
2018-11-04T04:15:34.831Z,13.70
2018-11-04T04:18:10.995Z,13.80
2018-11-04T04:20:47.191Z,12.77
2018-11-04T04:23:23.334Z,13.13
2018-11-04T04:25:59.455Z,12.93
2018-11-04T04:28:35.621Z,12.90
2018-11-04T04:31:11.619Z,13.80
2018-11-04T04:33:47.744Z,13.03
2018-11-04T04:36:24.161Z,13.90
2018-11-04T04:39:00.177Z,14.70
2018-11-04T04:41:36.168Z,13.47
2018-11-04T04:44:12.240Z,13.20
2018-11-04T04:46:48.396Z,12.63
2018-11-04T04:49:24.477Z,15.33
2018-11-04T04:52:00.633Z,12.13
2018-11-04T04:54:36.763Z,12.63
2018-11-04T04:57:12.849Z,13.57
2018-11-04T04:59:48.959Z,14.97
2018-11-04T05:02:24.968Z,12.20
2018-11-04T05:05:01.120Z,13.97
2018-11-04T05:07:37.278Z,14.20
2018-11-04T05:10:13.470Z,13.33
2018-11-04T05:12:49.723Z,13.37
2018-11-04T05:15:25.917Z,13.03
2018-11-04T05:18:01.932Z,12.80
2018-11-04T05:20:38.084Z,13.20
2018-11-04T05:23:14.246Z,12.60
2018-11-04T05:25:50.354Z,14.40
2018-11-04T05:28:26.476Z,13.23
2018-11-04T05:31:02.634Z,13.17
2018-11-04T05:33:38.791Z,14.57
2018-11-04T05:36:14.960Z,12.80
2018-11-04T05:38:51.139Z,15.67
2018-11-04T05:41:27.211Z,13.73
2018-11-04T05:44:03.186Z,14.30
2018-11-04T05:46:39.165Z,14.13
2018-11-04T05:49:15.216Z,12.37
2018-11-04T05:51:51.293Z,14.33
2018-11-04T05:54:27.352Z,15.43
2018-11-04T05:57:03.418Z,14.70
2018-11-04T05:59:39.523Z,13.17
2018-11-04T06:02:15.723Z,13.60
2018-11-04T06:04:51.830Z,14.10
2018-11-04T06:07:27.979Z,14.17
2018-11-04T06:10:04.239Z,14.87
2018-11-04T06:12:40.271Z,13.80
2018-11-04T06:15:16.473Z,13.67
2018-11-04T06:17:52.437Z,13.33
2018-11-04T06:20:28.503Z,13.30
2018-11-04T06:23:04.591Z,14.93
2018-11-04T06:25:40.798Z,13.63
2018-11-04T06:28:17.017Z,12.97
2018-11-04T06:30:53.037Z,13.30
2018-11-04T06:33:29.234Z,15.30
2018-11-04T06:36:05.734Z,14.27
2018-11-04T06:38:41.776Z,13.23
2018-11-04T06:41:17.958Z,14.10
2018-11-04T06:43:54.008Z,13.90
2018-11-04T06:46:30.212Z,16.17
2018-11-04T06:49:06.311Z,14.47
2018-11-04T06:51:42.284Z,14.20
2018-11-04T06:54:18.513Z,13.07
2018-11-04T06:56:54.652Z,14.37
2018-11-04T06:59:30.774Z,14.87
2018-11-04T07:02:06.941Z,14.80
2018-11-04T07:04:43.474Z,14.13
2018-11-04T07:07:19.735Z,12.80
2018-11-04T07:09:55.938Z,13.37
2018-11-04T07:12:32.000Z,13.60
2018-11-04T07:15:08.067Z,13.13
2018-11-04T07:17:44.159Z,14.70
2018-11-04T07:20:20.305Z,13.00
2018-11-04T07:22:56.444Z,15.00
2018-11-04T07:25:32.511Z,13.73
2018-11-04T07:28:08.508Z,12.53
2018-11-04T07:30:44.507Z,13.93
2018-11-04T07:33:20.554Z,12.50
2018-11-04T07:35:56.705Z,13.83
2018-11-04T07:38:32.844Z,14.83
2018-11-04T07:41:09.027Z,13.80
2018-11-04T07:43:45.226Z,15.07
2018-11-04T07:46:21.375Z,13.30
2018-11-04T07:48:57.560Z,14.60
2018-11-04T07:51:33.855Z,13.90
2018-11-04T07:54:09.741Z,14.50
2018-11-04T07:56:45.744Z,14.30
2018-11-04T07:59:21.872Z,15.80
2018-11-04T08:01:57.939Z,14.40
2018-11-04T08:04:34.097Z,15.73
2018-11-04T08:07:10.318Z,14.67
2018-11-04T08:09:46.407Z,15.57
2018-11-04T08:12:22.599Z,13.93
2018-11-04T08:14:58.585Z,13.00
2018-11-04T08:17:34.804Z,13.30
2018-11-04T08:20:11.154Z,14.03
2018-11-04T08:22:47.230Z,14.67
2018-11-04T08:25:23.211Z,13.53
2018-11-04T08:27:59.433Z,13.90
2018-11-04T08:30:35.546Z,15.40
2018-11-04T08:33:11.698Z,14.57
2018-11-04T08:35:47.897Z,14.73
2018-11-04T08:38:23.972Z,14.17
2018-11-04T08:41:00.135Z,13.37
2018-11-04T08:43:36.208Z,15.40
2018-11-04T08:46:12.481Z,14.10
2018-11-04T08:48:48.677Z,14.37
2018-11-04T08:51:24.958Z,15.50
2018-11-04T08:54:01.209Z,16.20
2018-11-04T08:56:37.406Z,14.17
2018-11-04T08:59:13.517Z,14.50
2018-11-04T09:01:49.417Z,15.57
2018-11-04T09:04:25.666Z,14.57
2018-11-04T09:07:01.725Z,14.20
2018-11-04T09:09:38.125Z,14.03
2018-11-04T09:12:14.249Z,14.07
2018-11-04T09:14:50.453Z,16.73
2018-11-04T09:17:26.612Z,15.63
2018-11-04T09:20:02.761Z,14.70
2018-11-04T09:22:39.185Z,15.57
2018-11-04T09:25:15.294Z,16.80
2018-11-04T09:27:51.301Z,14.90
2018-11-04T09:30:27.407Z,17.00
2018-11-04T09:33:03.499Z,15.67
2018-11-04T09:35:39.926Z,16.93
2018-11-04T09:38:15.722Z,15.20
2018-11-04T09:40:51.978Z,15.97
2018-11-04T09:43:28.122Z,14.83
2018-11-04T09:46:04.374Z,13.97
2018-11-04T09:48:40.614Z,15.77
2018-11-04T09:51:16.818Z,15.00
2018-11-04T09:53:52.886Z,14.23
2018-11-04T09:56:29.105Z,15.47
2018-11-04T09:59:05.487Z,14.40
2018-11-04T10:01:41.695Z,15.80
2018-11-04T10:04:17.924Z,15.80
2018-11-04T10:06:53.963Z,17.47
2018-11-04T10:09:29.990Z,14.97
2018-11-04T10:12:06.657Z,15.87
2018-11-04T10:14:42.712Z,15.50
2018-11-04T10:17:18.979Z,15.80
2018-11-04T10:19:55.519Z,14.83
2018-11-04T10:22:31.406Z,15.07
2018-11-04T10:25:09.238Z,16.60
2018-11-04T10:27:45.363Z,16.23
2018-11-04T10:30:21.593Z,14.87
2018-11-04T10:32:57.710Z,16.10
2018-11-04T10:35:33.712Z,15.90
2018-11-04T10:38:09.792Z,17.07
2018-11-04T10:40:45.858Z,16.70
2018-11-04T10:43:22.018Z,16.20
2018-11-04T10:45:58.165Z,15.63
2018-11-04T10:48:34.254Z,16.97
2018-11-04T10:51:10.441Z,14.93
2018-11-04T10:53:46.574Z,15.50
2018-11-04T10:56:22.765Z,15.10
2018-11-04T10:58:58.926Z,16.77
2018-11-04T11:01:35.066Z,14.97
2018-11-04T11:04:11.110Z,15.40
2018-11-04T11:06:47.290Z,14.90
2018-11-04T11:09:23.470Z,14.10
2018-11-04T11:12:02.424Z,14.70
2018-11-04T11:14:38.588Z,16.00
2018-11-04T11:17:14.747Z,14.87
2018-11-04T11:19:50.833Z,15.20
2018-11-04T11:22:27.010Z,15.83
2018-11-04T11:25:03.186Z,16.30
2018-11-04T11:27:39.386Z,16.67
2018-11-04T11:30:15.487Z,16.97
2018-11-04T11:32:51.571Z,14.43
2018-11-04T11:35:28.333Z,14.57
2018-11-04T11:38:04.470Z,13.70
2018-11-04T11:40:40.647Z,16.13
2018-11-04T11:43:16.741Z,16.00
2018-11-04T11:45:52.938Z,16.40
2018-11-04T11:48:28.966Z,16.40
2018-11-04T11:51:05.233Z,16.93
2018-11-04T11:53:41.367Z,14.37
2018-11-04T11:56:17.319Z,16.23
2018-11-04T11:58:53.464Z,15.80
2018-11-04T12:01:29.639Z,14.10
2018-11-04T12:04:05.793Z,15.90
2018-11-04T12:06:41.957Z,15.87
2018-11-04T12:09:18.182Z,14.93
2018-11-04T12:11:54.129Z,14.60
2018-11-04T12:14:30.451Z,24.10
2018-11-04T12:17:06.487Z,20.70
2018-11-04T12:19:42.671Z,17.47
2018-11-04T12:22:18.742Z,16.10
2018-11-04T12:24:54.763Z,18.30
2018-11-04T12:27:30.940Z,16.27
2018-11-04T12:30:10.056Z,16.70
2018-11-04T12:32:46.119Z,15.87
2018-11-04T12:35:22.411Z,15.70
2018-11-04T12:37:58.423Z,14.87
2018-11-04T12:40:34.608Z,14.73
2018-11-04T12:43:11.816Z,13.33
2018-11-04T12:45:47.971Z,16.43
2018-11-04T12:48:23.997Z,15.70
2018-11-04T12:50:59.953Z,16.90
2018-11-04T12:53:36.101Z,16.40
2018-11-04T12:56:12.200Z,13.77
2018-11-04T12:58:48.379Z,15.00
2018-11-04T13:01:24.346Z,14.40
2018-11-04T13:04:00.472Z,13.33
2018-11-04T13:06:36.613Z,13.17
2018-11-04T13:09:12.649Z,14.67
2018-11-04T13:11:48.719Z,13.57
2018-11-04T13:14:24.885Z,14.30
2018-11-04T13:17:01.014Z,14.47
2018-11-04T13:19:37.066Z,14.10
2018-11-04T13:22:13.162Z,12.60
2018-11-04T13:24:49.220Z,12.07
2018-11-04T13:27:25.506Z,13.23
2018-11-04T13:30:01.645Z,13.13
2018-11-04T13:32:38.143Z,13.37
2018-11-04T13:35:16.446Z,14.10
2018-11-04T13:37:52.889Z,14.20
2018-11-04T13:40:29.106Z,12.33
2018-11-04T13:43:05.543Z,13.90
2018-11-04T13:45:41.537Z,12.93
2018-11-04T13:48:17.814Z,14.03
2018-11-04T13:50:53.799Z,13.47
2018-11-04T13:53:29.990Z,13.10
2018-11-04T13:56:06.026Z,12.47
2018-11-04T13:58:42.437Z,13.10
2018-11-04T14:01:18.721Z,11.67
2018-11-04T14:03:54.866Z,12.67
2018-11-04T14:06:30.884Z,11.70
2018-11-04T14:09:08.886Z,12.07
2018-11-04T14:11:44.941Z,12.03
2018-11-04T14:14:21.147Z,10.70
2018-11-04T14:16:57.722Z,10.50
2018-11-04T14:19:33.952Z,11.33
2018-11-04T14:22:10.147Z,10.60
2018-11-04T14:24:47.162Z,9.40
2018-11-04T14:27:23.538Z,10.40
2018-11-04T14:29:59.616Z,9.93
2018-11-04T14:32:36.648Z,10.30
2018-11-04T14:35:13.229Z,9.50
2018-11-04T14:37:49.344Z,9.87
2018-11-04T14:40:26.471Z,8.57
2018-11-04T14:43:02.673Z,9.67
2018-11-04T14:45:38.703Z,7.67
2018-11-04T14:50:53.047Z,7.90
2018-11-04T14:53:29.212Z,7.30
2018-11-04T14:56:12.409Z,6.10
2018-11-04T14:58:48.463Z,7.33
2018-11-04T15:01:25.549Z,6.62
2018-11-04T15:04:01.543Z,5.80
2018-11-04T15:06:37.649Z,5.70
2018-11-04T15:09:15.195Z,5.63
2018-11-04T15:11:51.307Z,5.50
2018-11-04T15:14:27.439Z,5.30
2018-11-04T15:17:03.665Z,5.67
2018-11-04T15:19:39.819Z,5.50
2018-11-04T15:22:15.994Z,5.40
2018-11-04T15:24:53.218Z,6.03
2018-11-04T15:27:29.341Z,5.47
2018-11-04T15:30:07.667Z,5.50
2018-11-04T15:32:44.104Z,5.43
2018-11-04T15:35:20.300Z,5.77
2018-11-04T15:37:56.461Z,5.27
2018-11-04T15:40:32.706Z,5.83
2018-11-04T15:43:08.794Z,5.63
2018-11-04T15:45:44.964Z,5.50
2018-11-04T15:48:21.017Z,5.90
2018-11-04T15:50:57.052Z,6.37
2018-11-04T15:53:33.178Z,6.70
2018-11-04T15:56:09.346Z,6.87
2018-11-04T15:58:45.323Z,6.70
2018-11-04T16:01:21.277Z,5.87
2018-11-04T16:03:57.424Z,6.13
2018-11-04T16:06:33.405Z,6.33
2018-11-04T16:09:09.767Z,6.70
2018-11-04T16:11:45.742Z,5.50
2018-11-04T16:14:21.903Z,6.20
2018-11-04T16:16:57.966Z,6.30
2018-11-04T16:19:34.099Z,6.37
2018-11-04T16:22:10.119Z,6.37
2018-11-04T16:24:46.244Z,6.57
2018-11-04T16:27:22.389Z,6.00
2018-11-04T16:29:58.409Z,6.53
2018-11-04T16:32:34.798Z,6.87
2018-11-04T16:35:12.207Z,6.53
2018-11-04T16:37:49.817Z,6.87
2018-11-04T16:40:27.566Z,7.00
2018-11-04T16:43:03.685Z,5.80
2018-11-04T16:45:40.208Z,6.57
2018-11-04T16:48:16.308Z,6.50
2018-11-04T16:50:52.452Z,6.40
2018-11-04T16:53:28.441Z,7.10
2018-11-04T16:56:04.835Z,7.50
2018-11-04T16:58:40.973Z,7.90
2018-11-04T17:01:17.088Z,8.33
2018-11-04T17:03:53.143Z,6.73
2018-11-04T17:06:29.291Z,8.30
2018-11-04T17:09:07.703Z,7.13
2018-11-04T17:11:43.889Z,7.90
2018-11-04T17:14:20.058Z,8.60
2018-11-04T17:16:56.261Z,7.50
2018-11-04T17:19:32.614Z,7.87
2018-11-04T17:22:08.707Z,8.30
2018-11-04T17:24:44.905Z,8.07
2018-11-04T17:27:21.183Z,7.70
2018-11-04T17:29:57.623Z,7.90
2018-11-04T17:32:33.843Z,8.30
2018-11-04T17:35:11.608Z,6.77
2018-11-04T17:37:47.907Z,9.23
2018-11-04T17:40:24.079Z,7.53
2018-11-04T17:43:00.312Z,8.93
2018-11-04T17:45:36.652Z,8.17
2018-11-04T17:48:12.784Z,7.80
2018-11-04T17:50:49.082Z,8.40
2018-11-04T17:53:25.221Z,7.90
2018-11-04T17:56:01.186Z,7.93
2018-11-04T17:58:37.373Z,8.80
2018-11-04T18:01:13.398Z,7.90
2018-11-04T18:03:49.585Z,8.20
2018-11-04T18:06:25.898Z,7.27
2018-11-04T18:09:02.045Z,8.30
2018-11-04T18:11:38.132Z,9.57
2018-11-04T18:14:14.488Z,7.97
2018-11-04T18:16:50.839Z,8.23
2018-11-04T18:19:26.967Z,7.63
2018-11-04T18:22:03.260Z,7.57
2018-11-04T18:24:41.377Z,7.70
2018-11-04T18:27:17.981Z,8.30
2018-11-04T18:29:54.344Z,8.67
2018-11-04T18:32:30.768Z,9.23
2018-11-04T18:35:06.900Z,8.50
2018-11-04T18:37:43.231Z,7.27
2018-11-04T18:40:19.913Z,7.60
2018-11-04T18:42:55.875Z,7.90
2018-11-04T18:45:32.136Z,7.20
2018-11-04T18:48:08.194Z,7.30
2018-11-04T18:50:44.465Z,8.10
2018-11-04T18:53:20.429Z,7.37
2018-11-04T18:55:56.690Z,7.57
2018-11-04T18:58:32.931Z,7.73
2018-11-04T19:01:08.989Z,7.90
2018-11-04T19:03:45.680Z,7.40
2018-11-04T19:06:21.869Z,7.43
2018-11-04T19:08:58.186Z,8.40
2018-11-04T19:11:34.356Z,7.83
2018-11-04T19:14:10.546Z,8.03
2018-11-04T19:16:46.761Z,8.10
2018-11-04T19:19:23.019Z,7.37
2018-11-04T19:21:59.343Z,7.30
2018-11-04T19:24:35.389Z,8.27
2018-11-04T19:27:11.602Z,8.00
2018-11-04T19:29:47.826Z,7.83
2018-11-04T19:32:24.945Z,8.30
2018-11-04T19:35:01.089Z,8.20
2018-11-04T19:37:37.794Z,7.60
2018-11-04T19:40:15.871Z,8.47
2018-11-04T19:42:52.214Z,8.03
2018-11-04T19:45:28.277Z,7.40
2018-11-04T19:48:04.471Z,6.53
2018-11-04T19:50:40.586Z,7.37
2018-11-04T19:53:16.945Z,8.93
2018-11-04T19:55:52.998Z,7.47
2018-11-04T19:58:29.475Z,7.90
2018-11-04T20:01:06.428Z,9.00
2018-11-04T20:03:42.595Z,7.90
2018-11-04T20:06:18.761Z,6.90
2018-11-04T20:09:00.546Z,6.87
2018-11-04T20:11:36.721Z,6.17
2018-11-04T20:14:23.607Z,7.20
2018-11-04T20:16:59.676Z,7.23
2018-11-04T20:19:41.486Z,7.87
2018-11-04T20:22:17.319Z,8.60
2018-11-04T20:24:58.721Z,6.40
2018-11-04T20:27:34.973Z,6.80
2018-11-04T20:30:12.854Z,6.90
2018-11-04T20:32:54.390Z,6.33
2018-11-04T20:35:30.467Z,7.43
2018-11-04T20:38:07.092Z,6.90
2018-11-04T20:40:48.483Z,7.90
2018-11-04T20:43:24.602Z,6.80
2018-11-04T20:46:00.631Z,7.37
2018-11-04T20:48:41.910Z,8.10
2018-11-04T20:51:18.706Z,7.90
2018-11-04T20:53:54.809Z,7.20
2018-11-04T20:56:36.264Z,8.53
2018-11-04T20:59:12.467Z,6.97
2018-11-04T21:01:48.631Z,7.73
2018-11-04T21:04:26.546Z,7.57
2018-11-04T21:07:02.557Z,8.90
2018-11-04T21:09:38.775Z,7.13
2018-11-04T21:12:15.013Z,8.20
2018-11-04T21:14:51.121Z,7.37
2018-11-04T21:17:27.193Z,8.33
2018-11-04T21:20:03.502Z,8.23
2018-11-04T21:22:39.855Z,8.30
2018-11-04T21:25:15.913Z,7.13
2018-11-04T21:27:52.112Z,8.10
2018-11-04T21:30:28.211Z,7.77
2018-11-04T21:33:04.536Z,8.70
2018-11-04T21:35:40.556Z,8.10
2018-11-04T21:38:16.692Z,8.20
2018-11-04T21:40:52.782Z,7.27
2018-11-04T21:43:29.292Z,7.60
2018-11-04T21:46:05.103Z,8.77
2018-11-04T21:48:41.027Z,8.33
2018-11-04T21:51:17.279Z,8.10
2018-11-04T21:53:53.267Z,8.40
2018-11-04T21:56:29.511Z,8.10
2018-11-04T21:59:05.785Z,13.57
2018-11-04T22:01:42.005Z,9.10
2018-11-04T22:04:19.335Z,8.67
2018-11-04T22:06:55.349Z,7.93
2018-11-04T22:09:31.324Z,8.10
2018-11-04T22:12:07.341Z,8.40
2018-11-04T22:14:43.492Z,7.50
2018-11-04T22:17:19.754Z,8.10
2018-11-04T22:19:55.934Z,8.53
2018-11-04T22:22:32.052Z,6.90
2018-11-04T22:25:08.854Z,9.30
2018-11-04T22:27:45.155Z,7.40
2018-11-04T22:30:21.659Z,8.67
2018-11-04T22:32:57.970Z,8.63
2018-11-04T22:35:34.016Z,9.47
2018-11-04T22:38:10.212Z,10.30
2018-11-04T22:40:46.285Z,8.90
2018-11-04T22:43:22.525Z,8.83
2018-11-04T22:45:58.746Z,9.00
2018-11-04T22:48:34.703Z,9.40
2018-11-04T22:51:10.903Z,9.07
2018-11-04T22:53:47.230Z,8.50
2018-11-04T22:56:23.458Z,10.17
2018-11-04T22:58:59.546Z,8.50
2018-11-04T23:01:35.764Z,9.90
2018-11-04T23:04:11.851Z,8.20
2018-11-04T23:06:47.825Z,9.10
2018-11-04T23:09:24.023Z,9.33
2018-11-04T23:12:00.010Z,8.53
2018-11-04T23:14:36.227Z,9.30
2018-11-04T23:17:12.432Z,9.20
2018-11-04T23:19:48.591Z,8.93
2018-11-04T23:22:24.722Z,9.50
2018-11-04T23:25:00.776Z,8.23
2018-11-04T23:27:36.911Z,7.40
2018-11-04T23:30:14.812Z,8.73
2018-11-04T23:32:51.218Z,9.03
2018-11-04T23:35:27.405Z,7.63
2018-11-04T23:38:03.613Z,8.77
2018-11-04T23:40:39.698Z,9.00
2018-11-04T23:43:15.924Z,8.37
2018-11-04T23:45:51.974Z,8.70
2018-11-04T23:48:28.090Z,8.50
2018-11-04T23:51:04.198Z,8.07
2018-11-04T23:53:40.319Z,8.10
2018-11-04T23:56:16.336Z,8.20
2018-11-04T23:58:52.494Z,9.17
